Terminal Aerodrome Forecast
Issued by NWS

Home | Current Version | Previous Version | Text Only | Print | Product List | Glossary On
Versions: 1 2 3 4 5 6 7 8 9 10 11 12 13 14 15
849
FTUS45 KABQ 291138
TAFFMN
TAF
KFMN 291138Z 2912/3012 28011KT P6SM FEW100 BKN150
     FM291500 29012G22KT P6SM SCT150
     FM292000 29022G32KT P6SM FEW250
     FM300300 29012KT P6SM FEW250
     FM300600 29006KT P6SM SKC=

USA.gov is the U.S. government's official web portal to all federal, state and local government web resources and services.